Time;durP1;ratioP1;P1;durP2;ratioP2;P2;SDS_P1;SDS_P2;PMS_P1;PMS_P2;Temp;Humidity;BMP_temperature;BMP_pressure;BME280_temperature;BME280_humidity;BME280_pressure;Samples;Min_cycle;Max_cycle;Signal;HPM_P1;HPM_P2
2021/11/15 00:01:01;;;;;;;26.90;23.90;;;;;22.50;101481.00;;;;2070054;28;20238;-51
2021/11/15 00:02:04;;;;;;;28.20;25.35;;;;;22.50;101471.00;;;;2070626;28;20214;-52
2021/11/15 00:03:04;;;;;;;25.70;23.00;;;;;22.50;101472.00;;;;2070330;28;20214;-53
2021/11/15 00:04:05;;;;;;;27.40;23.60;;;;;22.50;101478.00;;;;2074694;28;20299;-51
2021/11/15 00:05:06;;;;;;;24.33;21.83;;;;;22.50;101471.00;;;;2078592;28;20300;-52
2021/11/15 00:06:07;;;;;;;25.95;23.15;;;;;22.50;101479.00;;;;2076436;28;20214;-52
2021/11/15 00:07:07;;;;;;;25.67;22.93;;;;;22.50;101475.00;;;;2079137;28;20686;-51
2021/11/15 00:08:08;;;;;;;24.40;21.83;;;;;22.50;101473.00;;;;2079022;28;20206;-52
2021/11/15 00:09:08;;;;;;;24.70;21.37;;;;;22.50;101467.00;;;;2076634;28;20772;-51
2021/11/15 00:10:15;;;;;;;24.37;20.97;;;;;22.50;101472.00;;;;2078498;28;20320;-53
2021/11/15 00:11:16;;;;;;;25.20;22.42;;;;;22.50;101474.00;;;;2078150;28;20216;-52
2021/11/15 00:12:16;;;;;;;24.10;20.17;;;;;22.50;101473.00;;;;2078445;28;20263;-53
2021/11/15 00:13:17;;;;;;;22.63;20.33;;;;;22.50;101471.00;;;;2078511;28;20221;-50
2021/11/15 00:14:17;;;;;;;24.97;22.03;;;;;22.50;101468.00;;;;2078359;28;20224;-49
2021/11/15 00:15:18;;;;;;;23.60;21.20;;;;;22.40;101473.00;;;;2078511;28;20214;-52
2021/11/15 00:16:19;;;;;;;23.95;19.95;;;;;22.40;101474.00;;;;2075687;28;20295;-52
2021/11/15 00:17:19;;;;;;;24.00;21.43;;;;;22.40;101481.00;;;;2077984;28;20210;-53
2021/11/15 00:18:19;;;;;;;23.50;21.03;;;;;22.40;101471.00;;;;2078607;28;20213;-51
2021/11/15 00:19:20;;;;;;;21.47;19.17;;;;;22.40;101471.00;;;;2076483;28;20209;-54
2021/11/15 00:20:20;;;;;;;24.50;19.80;;;;;22.40;101470.00;;;;2070101;28;20301;-53
2021/11/15 00:21:20;;;;;;;21.57;19.27;;;;;22.40;101477.00;;;;2078199;28;20296;-51
2021/11/15 00:22:21;;;;;;;22.50;20.20;;;;;22.40;101471.00;;;;2076837;28;20264;-51
2021/11/15 00:23:21;;;;;;;20.77;18.67;;;;;22.40;101478.00;;;;2070705;28;20210;-51
2021/11/15 00:24:21;;;;;;;21.43;19.20;;;;;22.40;101472.00;;;;2070787;28;20214;-51
2021/11/15 00:25:22;;;;;;;20.30;17.90;;;;;22.40;101473.00;;;;2070745;28;20269;-51
2021/11/15 00:26:22;;;;;;;20.83;18.63;;;;;22.40;101474.00;;;;2067991;28;20679;-52
2021/11/15 00:27:23;;;;;;;20.00;17.93;;;;;22.40;101473.00;;;;2073425;28;20745;-52
2021/11/15 00:28:23;;;;;;;19.20;17.20;;;;;22.30;101477.00;;;;2074543;28;20237;-52
2021/11/15 00:29:23;;;;;;;20.30;18.20;;;;;22.40;101474.00;;;;2072662;28;20822;-53
2021/11/15 00:30:23;;;;;;;20.03;17.93;;;;;22.40;101468.00;;;;2073009;28;20905;-50
2021/11/15 00:31:24;;;;;;;19.37;17.37;;;;;22.40;101473.00;;;;2068335;28;20665;-52
2021/11/15 00:32:28;;;;;;;20.27;18.10;;;;;22.40;101471.00;;;;2070716;28;20210;-53
2021/11/15 00:33:28;;;;;;;19.70;17.30;;;;;22.40;101468.00;;;;2070509;28;20591;-53
2021/11/15 00:34:29;;;;;;;19.17;17.17;;;;;22.40;101469.00;;;;2070683;28;20214;-53
2021/11/15 00:35:29;;;;;;;18.97;17.07;;;;;22.40;101467.00;;;;2077866;28;20296;-53
2021/11/15 00:36:29;;;;;;;18.83;16.90;;;;;22.40;101474.00;;;;2078069;28;20632;-53
2021/11/15 00:37:30;;;;;;;18.53;16.23;;;;;22.40;101475.00;;;;2078301;28;20232;-50
2021/11/15 00:38:30;;;;;;;18.17;16.27;;;;;22.30;101464.00;;;;2078072;28;20224;-52
2021/11/15 00:39:30;;;;;;;17.20;15.40;;;;;22.40;101471.00;;;;2076669;28;20716;-52
2021/11/15 00:40:31;;;;;;;17.33;15.63;;;;;22.40;101475.00;;;;2075596;28;20210;-52
2021/11/15 00:41:31;;;;;;;17.17;15.47;;;;;22.30;101467.00;;;;2076784;28;20288;-52
2021/11/15 00:42:31;;;;;;;17.00;15.20;;;;;22.30;101470.00;;;;2077192;28;20704;-52
2021/11/15 00:43:32;;;;;;;17.47;15.67;;;;;22.30;101474.00;;;;2078298;28;20232;-52
2021/11/15 00:44:32;;;;;;;16.80;15.10;;;;;22.30;101480.00;;;;2077931;28;20221;-51
2021/11/15 00:45:34;;;;;;;17.83;16.13;;;;;22.30;101474.00;;;;2067658;28;20214;-53
2021/11/15 00:46:34;;;;;;;17.02;15.30;;;;;22.30;101468.00;;;;2069917;28;20218;-52
2021/11/15 00:47:35;;;;;;;16.33;14.73;;;;;22.30;101481.00;;;;2070381;28;20208;-52
2021/11/15 00:48:35;;;;;;;18.00;15.10;;;;;22.30;101474.00;;;;2070492;28;20679;-54
2021/11/15 00:49:35;;;;;;;17.87;16.17;;;;;22.30;101475.00;;;;2069157;28;20238;-54
2021/11/15 00:50:36;;;;;;;16.57;14.87;;;;;22.30;101467.00;;;;2067933;28;20637;-53
2021/11/15 00:51:37;;;;;;;16.97;15.33;;;;;22.30;101472.00;;;;2069529;28;20638;-51
2021/11/15 00:52:37;;;;;;;15.53;14.03;;;;;22.30;101477.00;;;;2070046;28;20457;-51
2021/11/15 00:53:37;;;;;;;15.27;13.77;;;;;22.30;101471.00;;;;2069757;28;20322;-52
2021/11/15 00:54:38;;;;;;;14.73;13.33;;;;;22.30;101467.00;;;;2069734;28;20301;-52
2021/11/15 00:55:38;;;;;;;15.30;13.80;;;;;22.30;101477.00;;;;2069481;28;20214;-53
2021/11/15 00:56:38;;;;;;;16.00;14.40;;;;;22.30;101471.00;;;;2077601;28;20296;-50
2021/11/15 00:57:39;;;;;;;14.73;13.13;;;;;22.30;101478.00;;;;2073928;28;20266;-51
2021/11/15 00:58:39;;;;;;;15.83;14.33;;;;;22.30;101478.00;;;;2072885;28;20264;-50
2021/11/15 00:59:40;;;;;;;16.33;14.77;;;;;22.30;101469.00;;;;2071920;28;20706;-50
2021/11/15 01:00:41;;;;;;;16.03;14.37;;;;;22.30;101470.00;;;;2070162;28;20566;-52
2021/11/15 01:01:42;;;;;;;15.20;13.80;;;;;22.30;101478.00;;;;2072472;28;20214;-53
2021/11/15 01:02:42;;;;;;;15.63;14.03;;;;;22.30;101476.00;;;;2071695;28;20244;-53
2021/11/15 01:03:42;;;;;;;14.90;13.40;;;;;22.30;101468.00;;;;2071397;28;20236;-53
2021/11/15 01:04:43;;;;;;;14.10;12.70;;;;;22.20;101468.00;;;;2069831;28;20222;-52
2021/11/15 01:05:49;;;;;;;14.17;12.87;;;;;22.20;101466.00;;;;2067975;28;20225;-51
2021/11/15 01:06:49;;;;;;;14.80;13.40;;;;;22.30;101469.00;;;;2070047;28;20214;-52
2021/11/15 01:07:49;;;;;;;13.40;12.10;;;;;22.30;101471.00;;;;2069993;28;20377;-53
2021/11/15 01:08:50;;;;;;;13.93;12.60;;;;;22.20;101470.00;;;;2073835;28;20331;-52
2021/11/15 01:09:50;;;;;;;13.83;12.53;;;;;22.20;101474.00;;;;2072465;28;20259;-52
2021/11/15 01:10:52;;;;;;;13.03;11.73;;;;;22.20;101479.00;;;;2069208;28;20205;-51
2021/11/15 01:11:53;;;;;;;13.68;12.38;;;;;22.20;101476.00;;;;2069792;28;20269;-52
2021/11/15 01:12:53;;;;;;;14.20;12.80;;;;;22.20;101476.00;;;;2070000;28;20210;-51
2021/11/15 01:13:55;;;;;;;13.93;12.53;;;;;22.20;101471.00;;;;2070014;28;20702;-53
2021/11/15 01:14:56;;;;;;;12.93;11.63;;;;;22.20;101478.00;;;;2070040;28;20217;-52
2021/11/15 01:15:56;;;;;;;14.20;12.70;;;;;22.20;101477.00;;;;2067156;28;20742;-53
2021/11/15 01:16:56;;;;;;;12.93;11.63;;;;;22.20;101473.00;;;;2069411;28;20903;-51
2021/11/15 01:17:57;;;;;;;12.90;11.60;;;;;22.20;101469.00;;;;2070460;28;20214;-49
2021/11/15 01:18:57;;;;;;;13.77;12.43;;;;;22.30;101470.00;;;;2068969;28;20284;-53
2021/11/15 01:19:58;;;;;;;11.90;10.80;;;;;22.20;101466.00;;;;2070153;28;20613;-53
2021/11/15 01:20:58;;;;;;;14.50;13.10;;;;;22.20;101464.00;;;;2068002;28;20222;-53
2021/11/15 01:21:59;;;;;;;13.93;12.53;;;;;22.20;101463.00;;;;2070507;28;20210;-53
2021/11/15 01:22:59;;;;;;;13.77;12.37;;;;;22.20;101461.00;;;;2073690;28;20213;-52
2021/11/15 01:24:00;;;;;;;13.97;12.57;;;;;22.20;101461.00;;;;2074448;28;20301;-53
2021/11/15 01:25:00;;;;;;;13.10;11.80;;;;;22.20;101461.00;;;;2070243;28;20632;-52
2021/11/15 01:26:00;;;;;;;12.67;11.37;;;;;22.20;101464.00;;;;2061447;28;20223;-53
2021/11/15 01:27:01;;;;;;;12.80;11.50;;;;;22.20;101457.00;;;;2069056;28;21020;-52
2021/11/15 01:28:01;;;;;;;13.80;12.40;;;;;22.00;101456.00;;;;2070428;28;20713;-52
2021/11/15 01:29:02;;;;;;;12.10;11.00;;;;;22.20;101454.00;;;;2075310;28;20618;-52
2021/11/15 01:30:07;;;;;;;12.90;11.70;;;;;22.20;101451.00;;;;2078165;28;20947;-52
2021/11/15 01:31:07;;;;;;;11.68;10.57;;;;;22.20;101453.00;;;;2077746;28;20297;-52
2021/11/15 01:32:07;;;;;;;12.47;11.17;;;;;22.20;101453.00;;;;2077702;28;20237;-51
2021/11/15 01:33:08;;;;;;;11.93;10.83;;;;;22.10;101457.00;;;;2077545;28;20674;-50
2021/11/15 01:34:08;;;;;;;11.27;10.17;;;;;22.20;101453.00;;;;2078193;28;20216;-55
2021/11/15 01:35:09;;;;;;;12.67;11.37;;;;;22.10;101456.00;;;;2077034;28;20745;-55
2021/11/15 01:36:09;;;;;;;12.70;11.40;;;;;22.20;101445.00;;;;2078008;28;20266;-53
2021/11/15 01:37:10;;;;;;;11.10;10.10;;;;;22.20;101457.00;;;;2076809;28;20263;-56
2021/11/15 01:38:10;;;;;;;10.53;9.53;;;;;22.20;101451.00;;;;2077774;28;20209;-52
2021/11/15 01:39:11;;;;;;;10.73;9.83;;;;;22.20;101454.00;;;;2076495;28;20217;-53
2021/11/15 01:40:13;;;;;;;12.80;11.60;;;;;22.20;101450.00;;;;2077383;28;20298;-52
2021/11/15 01:41:13;;;;;;;11.35;10.35;;;;;22.10;101448.00;;;;2077210;28;20461;-53
2021/11/15 01:42:13;;;;;;;10.87;9.87;;;;;22.20;101444.00;;;;2077762;28;20669;-53
2021/11/15 01:43:14;;;;;;;11.67;10.50;;;;;22.10;101461.00;;;;2077670;28;20209;-51
2021/11/15 01:44:14;;;;;;;10.60;9.60;;;;;22.10;101460.00;;;;2077228;28;20551;-51
2021/11/15 01:45:16;;;;;;;11.67;10.57;;;;;22.10;101452.00;;;;2078069;28;20214;-51
2021/11/15 01:46:18;;;;;;;11.20;10.15;;;;;22.10;101448.00;;;;2077471;28;20255;-50
2021/11/15 01:47:18;;;;;;;11.27;10.30;;;;;22.10;101452.00;;;;2077062;28;20206;-53
2021/11/15 01:48:18;;;;;;;10.63;9.63;;;;;22.10;101449.00;;;;2077054;28;20705;-51
2021/11/15 01:49:19;;;;;;;10.10;9.20;;;;;22.10;101453.00;;;;2077114;28;20209;-52
2021/11/15 01:50:19;;;;;;;11.07;10.00;;;;;22.10;101447.00;;;;2077905;28;20700;-53
2021/11/15 01:51:20;;;;;;;11.10;10.00;;;;;22.10;101448.00;;;;2075764;28;20881;-53
2021/11/15 01:52:20;;;;;;;10.00;9.10;;;;;22.10;101452.00;;;;2078219;28;20232;-52
2021/11/15 01:53:20;;;;;;;10.83;9.83;;;;;22.10;101455.00;;;;2071662;28;20581;-52
2021/11/15 01:54:22;;;;;;;11.43;10.27;;;;;22.10;101451.00;;;;2070970;28;20210;-51
2021/11/15 01:55:23;;;;;;;9.85;8.95;;;;;22.10;101449.00;;;;2074347;28;20206;-50
2021/11/15 01:56:23;;;;;;;10.33;9.00;;;;;22.10;101442.00;;;;2078176;28;20221;-52
2021/11/15 01:57:23;;;;;;;10.80;9.70;;;;;22.10;101447.00;;;;2061438;28;20215;-53
2021/11/15 01:58:24;;;;;;;10.47;9.47;;;;;22.10;101441.00;;;;2061307;28;20273;-53
2021/11/15 01:59:24;;;;;;;9.97;9.00;;;;;22.10;101444.00;;;;2068371;28;20252;-53
2021/11/15 02:00:33;;;;;;;11.40;10.30;;;;;22.10;101445.00;;;;2070883;28;20314;-51
2021/11/15 02:01:33;;;;;;;10.07;9.07;;;;;22.10;101445.00;;;;2069372;28;20245;-52
2021/11/15 02:02:33;;;;;;;9.80;8.90;;;;;22.10;101449.00;;;;2071626;28;20721;-53
2021/11/15 02:03:34;;;;;;;10.27;9.30;;;;;22.10;101443.00;;;;2069620;28;20222;-53
2021/11/15 02:04:34;;;;;;;10.03;9.03;;;;;22.10;101450.00;;;;2061464;28;20311;-53
2021/11/15 02:05:35;;;;;;;9.57;8.67;;;;;22.10;101441.00;;;;2069601;28;20217;-51
2021/11/15 02:06:35;;;;;;;10.10;9.23;;;;;22.10;101450.00;;;;2070190;28;20218;-51
2021/11/15 02:07:35;;;;;;;9.03;8.23;;;;;22.00;101445.00;;;;2073674;28;20222;-52
2021/11/15 02:08:36;;;;;;;10.00;9.10;;;;;22.10;101447.00;;;;2073299;28;20284;-52
2021/11/15 02:09:37;;;;;;;10.13;9.23;;;;;22.10;101449.00;;;;2070288;28;20588;-49
2021/11/15 02:10:37;;;;;;;10.43;9.50;;;;;22.10;101447.00;;;;2071229;28;20452;-50
2021/11/15 02:11:38;;;;;;;10.50;9.50;;;;;22.10;101454.00;;;;2068397;28;20218;-53
2021/11/15 02:12:39;;;;;;;9.37;8.47;;;;;22.10;101453.00;;;;2071361;28;20268;-53
2021/11/15 02:13:40;;;;;;;10.07;9.18;;;;;22.10;101439.00;;;;2071069;28;20214;-51
2021/11/15 02:14:40;;;;;;;10.02;9.02;;;;;22.00;101450.00;;;;2071529;28;20218;-52
2021/11/15 02:15:41;;;;;;;9.47;8.57;;;;;22.00;101448.00;;;;2071787;28;20229;-53
2021/11/15 02:16:41;;;;;;;10.03;9.10;;;;;22.00;101446.00;;;;2071412;28;20301;-53
2021/11/15 02:17:43;;;;;;;10.40;9.50;;;;;22.00;101447.00;;;;2071788;28;20230;-52
2021/11/15 02:18:43;;;;;;;8.93;8.07;;;;;22.00;101451.00;;;;2070530;28;20222;-51
2021/11/15 02:19:44;;;;;;;9.70;8.80;;;;;22.00;101451.00;;;;2070781;28;20222;-53
2021/11/15 02:20:52;;;;;;;8.67;7.87;;;;;22.00;101450.00;;;;2075939;28;20226;-53
2021/11/15 02:21:54;;;;;;;9.55;8.65;;;;;22.00;101459.00;;;;2079594;28;20221;-53
2021/11/15 02:22:54;;;;;;;9.13;8.32;;;;;22.00;101443.00;;;;2079264;28;20218;-52
2021/11/15 02:23:55;;;;;;;10.07;9.17;;;;;22.00;101449.00;;;;2078931;28;20220;-52
2021/11/15 02:24:55;;;;;;;9.50;8.60;;;;;22.00;101443.00;;;;2079897;28;20245;-50
2021/11/15 02:25:56;;;;;;;9.27;8.37;;;;;22.00;101448.00;;;;2069048;28;20209;-52
2021/11/15 02:26:57;;;;;;;9.02;8.23;;;;;22.00;101441.00;;;;2071020;28;20273;-51
2021/11/15 02:27:57;;;;;;;9.63;8.73;;;;;22.00;101444.00;;;;2076187;28;20217;-52
2021/11/15 02:28:58;;;;;;;9.43;8.53;;;;;22.00;101440.00;;;;2078394;28;20225;-49
2021/11/15 02:29:58;;;;;;;9.77;8.83;;;;;22.00;101437.00;;;;2075054;28;20559;-53
2021/11/15 02:30:58;;;;;;;8.70;7.90;;;;;22.00;101437.00;;;;2076923;28;20705;-52
2021/11/15 02:31:59;;;;;;;8.67;7.90;;;;;22.00;101438.00;;;;2076787;28;20280;-53
2021/11/15 02:33:01;;;;;;;9.40;8.60;;;;;22.00;101447.00;;;;2079093;28;20210;-52
2021/11/15 02:34:01;;;;;;;9.15;8.35;;;;;22.00;101441.00;;;;2078898;28;20217;-53
2021/11/15 02:35:01;;;;;;;9.30;8.40;;;;;22.00;101440.00;;;;2073584;28;20712;-53
2021/11/15 02:36:02;;;;;;;9.77;8.87;;;;;22.00;101434.00;;;;2070756;28;20214;-50
2021/11/15 02:37:03;;;;;;;9.90;8.90;;;;;22.00;101442.00;;;;2073428;28;20217;-53
2021/11/15 02:38:04;;;;;;;9.10;8.30;;;;;22.00;101441.00;;;;2075544;28;20223;-52
2021/11/15 02:39:04;;;;;;;9.00;8.20;;;;;22.00;101437.00;;;;2077057;28;20673;-52
2021/11/15 02:40:06;;;;;;;9.20;8.40;;;;;22.00;101439.00;;;;2073862;28;20495;-53
2021/11/15 02:41:07;;;;;;;9.70;8.80;;;;;22.00;101433.00;;;;2072493;28;20210;-52
2021/11/15 02:42:10;;;;;;;9.20;8.33;;;;;22.00;101426.00;;;;2072309;28;20571;-52
2021/11/15 02:43:11;;;;;;;9.05;8.25;;;;;22.00;101434.00;;;;2076073;28;20209;-52
2021/11/15 02:44:11;;;;;;;9.00;8.27;;;;;22.00;101439.00;;;;2078472;28;20299;-53
2021/11/15 02:45:11;;;;;;;9.30;8.50;;;;;22.00;101425.00;;;;2078314;28;20246;-53
2021/11/15 02:46:12;;;;;;;8.90;8.10;;;;;21.90;101431.00;;;;2078734;28;20270;-52
2021/11/15 02:47:13;;;;;;;9.27;8.40;;;;;22.00;101434.00;;;;2079022;28;20299;-52
2021/11/15 02:48:13;;;;;;;8.60;7.80;;;;;21.90;101426.00;;;;2079059;28;20288;-52
2021/11/15 02:49:14;;;;;;;8.43;7.73;;;;;22.00;101435.00;;;;2077582;28;20600;-53
2021/11/15 02:50:19;;;;;;;9.90;9.00;;;;;22.00;101432.00;;;;2078447;28;20214;-51
2021/11/15 02:51:20;;;;;;;9.80;8.90;;;;;22.00;101425.00;;;;2078482;28;20218;-50
2021/11/15 02:52:20;;;;;;;9.17;8.30;;;;;22.00;101434.00;;;;2079376;28;20214;-53
2021/11/15 02:53:20;;;;;;;8.33;7.63;;;;;22.00;101430.00;;;;2079407;28;20312;-51
2021/11/15 02:54:24;;;;;;;9.17;8.37;;;;;22.00;101427.00;;;;2079478;28;20218;-52
2021/11/15 02:55:25;;;;;;;9.05;8.18;;;;;22.00;101430.00;;;;2073657;28;20295;-55
2021/11/15 02:56:25;;;;;;;9.20;8.40;;;;;22.00;101431.00;;;;2071344;28;20264;-52
2021/11/15 02:57:26;;;;;;;8.47;7.67;;;;;21.90;101425.00;;;;2074254;28;20228;-53
2021/11/15 02:58:26;;;;;;;8.67;7.97;;;;;21.90;101430.00;;;;2073981;28;20740;-51
2021/11/15 02:59:27;;;;;;;7.63;6.93;;;;;21.90;101427.00;;;;2070058;28;20222;-49
2021/11/15 03:00:48;;;;;;;8.80;8.00;;;;;21.90;101428.00;;;;2070149;28;20222;-51
2021/11/15 03:01:49;;;;;;;8.85;8.05;;;;;21.90;101427.00;;;;2075390;28;20221;-51
2021/11/15 03:02:49;;;;;;;9.03;8.23;;;;;21.90;101426.00;;;;2079334;28;20910;-51
2021/11/15 03:03:49;;;;;;;8.50;7.70;;;;;21.90;101428.00;;;;2079573;28;20225;-53
2021/11/15 03:04:50;;;;;;;9.17;8.40;;;;;21.90;101430.00;;;;2079546;28;20789;-53
2021/11/15 03:05:51;;;;;;;8.73;7.93;;;;;21.90;101423.00;;;;2079419;28;20210;-51
2021/11/15 03:06:51;;;;;;;9.30;8.40;;;;;21.90;101428.00;;;;2076370;28;20677;-51
2021/11/15 03:07:52;;;;;;;9.10;8.20;;;;;21.90;101428.00;;;;2079253;28;20293;-52
2021/11/15 03:08:52;;;;;;;8.50;7.70;;;;;21.90;101426.00;;;;2075614;28;20217;-52
2021/11/15 03:09:52;;;;;;;9.23;8.43;;;;;21.90;101431.00;;;;2073335;28;20212;-52
2021/11/15 03:10:58;;;;;;;8.57;7.80;;;;;21.90;101420.00;;;;2072536;28;20217;-50
2021/11/15 03:11:58;;;;;;;9.48;8.60;;;;;21.90;101428.00;;;;2070954;28;20285;-52
2021/11/15 03:12:59;;;;;;;9.00;8.10;;;;;21.90;101433.00;;;;2078707;28;20209;-51
2021/11/15 03:13:59;;;;;;;9.10;8.30;;;;;21.90;101429.00;;;;2079469;28;20294;-51
2021/11/15 03:15:00;;;;;;;9.30;8.50;;;;;21.90;101433.00;;;;2079415;28;20210;-51
2021/11/15 03:16:00;;;;;;;8.70;7.90;;;;;21.90;101420.00;;;;2076755;28;20202;-53
2021/11/15 03:17:01;;;;;;;9.53;8.63;;;;;21.90;101415.00;;;;2078853;28;20967;-53
2021/11/15 03:18:04;;;;;;;8.50;7.80;;;;;21.90;101418.00;;;;2078161;28;20272;-50
2021/11/15 03:19:05;;;;;;;9.52;8.63;;;;;21.90;101420.00;;;;2078033;28;20562;-53
2021/11/15 03:20:06;;;;;;;8.73;7.93;;;;;21.80;101419.00;;;;2079285;28;20228;-52
2021/11/15 03:21:21;;;;;;;8.45;7.75;;;;;21.90;101418.00;;;;2068905;28;20227;-52
2021/11/15 03:22:22;;;;;;;9.23;8.38;;;;;21.90;101424.00;;;;2073113;28;20296;-53
2021/11/15 03:23:24;;;;;;;8.30;7.50;;;;;21.90;101419.00;;;;2074452;28;20213;-52
2021/11/15 03:24:24;;;;;;;9.55;8.55;;;;;21.80;101417.00;;;;2071116;28;20225;-52
2021/11/15 03:25:28;;;;;;;9.00;8.17;;;;;21.90;101419.00;;;;2070519;28;20221;-51
2021/11/15 03:26:28;;;;;;;9.55;8.60;;;;;21.90;101416.00;;;;2073512;28;20610;-51
2021/11/15 03:27:33;;;;;;;9.00;8.27;;;;;21.90;101421.00;;;;2070768;28;20222;-53
2021/11/15 03:28:39;;;;;;;8.60;7.82;;;;;21.90;101418.00;;;;2070123;28;20233;-52
2021/11/15 03:29:39;;;;;;;9.45;8.55;;;;;21.80;101411.00;;;;2069390;28;20222;-51
2021/11/15 03:30:40;;;;;;;8.67;7.87;;;;;21.80;101420.00;;;;2070471;28;20217;-52
2021/11/15 03:31:40;;;;;;;9.40;8.50;;;;;21.80;101414.00;;;;2070220;28;20207;-52
2021/11/15 03:32:44;;;;;;;8.73;7.93;;;;;21.90;101412.00;;;;2070559;28;20226;-52
2021/11/15 03:33:45;;;;;;;9.18;8.38;;;;;21.80;101416.00;;;;2076743;28;20210;-52
2021/11/15 03:34:46;;;;;;;8.70;7.80;;;;;21.80;101429.00;;;;2078563;28;20228;-52
2021/11/15 03:35:46;;;;;;;8.30;7.60;;;;;21.80;101421.00;;;;2077845;28;20214;-51
2021/11/15 03:36:47;;;;;;;8.70;7.90;;;;;21.90;101416.00;;;;2077698;28;20452;-52
2021/11/15 03:37:47;;;;;;;8.40;7.70;;;;;21.80;101421.00;;;;2078495;28;20467;-52
2021/11/15 03:38:48;;;;;;;8.53;7.73;;;;;21.80;101419.00;;;;2077248;28;20586;-51
2021/11/15 03:39:48;;;;;;;8.47;7.67;;;;;21.80;101420.00;;;;2078497;28;21101;-52
2021/11/15 03:40:49;;;;;;;9.53;8.57;;;;;21.80;101420.00;;;;2074221;28;21065;-51
2021/11/15 03:41:49;;;;;;;9.00;8.20;;;;;21.80;101413.00;;;;2071348;28;20295;-52
2021/11/15 03:42:54;;;;;;;9.50;8.60;;;;;21.80;101416.00;;;;2073493;28;20221;-52
2021/11/15 03:43:54;;;;;;;7.72;7.03;;;;;21.80;101420.00;;;;2077402;28;20233;-52
2021/11/15 03:44:55;;;;;;;8.83;8.03;;;;;21.80;101423.00;;;;2078247;28;20662;-52
2021/11/15 03:45:55;;;;;;;9.07;8.27;;;;;21.80;101418.00;;;;2070079;28;20218;-53
2021/11/15 03:46:56;;;;;;;7.70;7.00;;;;;21.80;101419.00;;;;2070252;28;20572;-52
2021/11/15 03:47:56;;;;;;;9.43;8.63;;;;;21.80;101423.00;;;;2070125;28;20233;-53
2021/11/15 03:48:57;;;;;;;9.00;8.20;;;;;21.80;101413.00;;;;2069367;28;20218;-51
2021/11/15 03:49:57;;;;;;;8.97;8.13;;;;;21.90;101416.00;;;;2073427;28;20229;-51
2021/11/15 03:50:58;;;;;;;8.63;7.93;;;;;21.90;101421.00;;;;2075427;28;20826;-53
2021/11/15 03:51:59;;;;;;;9.57;8.68;;;;;21.80;101422.00;;;;2070283;28;20253;-52
2021/11/15 03:53:00;;;;;;;9.30;8.40;;;;;21.80;101427.00;;;;2071666;28;20229;-52
2021/11/15 03:54:00;;;;;;;9.07;8.27;;;;;21.80;101423.00;;;;2069603;28;20225;-52
2021/11/15 03:55:00;;;;;;;8.83;8.03;;;;;21.80;101431.00;;;;2070661;28;20202;-50
2021/11/15 03:56:01;;;;;;;9.40;8.60;;;;;21.80;101427.00;;;;2070265;28;20224;-52
2021/11/15 03:57:02;;;;;;;9.00;8.10;;;;;21.80;101428.00;;;;2070185;28;20277;-52
2021/11/15 03:58:03;;;;;;;8.13;7.43;;;;;21.80;101424.00;;;;2070420;28;20280;-51
2021/11/15 03:59:06;;;;;;;7.97;7.27;;;;;21.80;101434.00;;;;2076058;28;20233;-52
2021/11/15 04:00:08;;;;;;;8.45;7.75;;;;;21.80;101434.00;;;;2078043;28;20810;-54
2021/11/15 04:01:09;;;;;;;8.35;7.65;;;;;21.80;101436.00;;;;2070011;28;20644;-51
2021/11/15 04:02:10;;;;;;;8.90;8.10;;;;;21.80;101450.00;;;;2070282;28;20210;-52
2021/11/15 04:03:31;;;;;;;8.93;8.02;;;;;21.80;101443.00;;;;2070118;28;20205;-51
2021/11/15 04:04:48;;;;;;;7.43;6.72;;;;;21.80;101441.00;;;;2075173;28;20205;-50
2021/11/15 04:05:54;;;;;;;9.32;8.52;;;;;21.80;101450.00;;;;2078726;28;20321;-51
2021/11/15 04:06:55;;;;;;;8.88;8.07;;;;;21.80;101438.00;;;;2078270;28;20208;-50
2021/11/15 04:07:55;;;;;;;8.80;8.00;;;;;21.80;101435.00;;;;2078375;28;20245;-52
2021/11/15 04:09:01;;;;;;;9.20;8.40;;;;;21.80;101438.00;;;;2076947;28;20301;-52
2021/11/15 04:10:05;;;;;;;9.05;8.15;;;;;21.80;101441.00;;;;2078238;28;20267;-50
2021/11/15 04:11:06;;;;;;;7.50;6.90;;;;;21.70;101442.00;;;;2078199;28;20933;-52
2021/11/15 04:12:07;;;;;;;8.75;8.02;;;;;21.80;101433.00;;;;2070801;28;20210;-53
2021/11/15 04:13:29;;;;;;;8.60;7.80;;;;;21.70;101431.00;;;;2070623;28;20218;-50
2021/11/15 04:14:29;;;;;;;9.02;8.25;;;;;21.70;101428.00;;;;2074262;28;21841;-51
2021/11/15 04:15:29;;;;;;;8.70;7.90;;;;;21.80;101443.00;;;;2070014;28;20249;-52
2021/11/15 04:16:30;;;;;;;8.57;7.77;;;;;21.70;101442.00;;;;2069941;28;20265;-52
2021/11/15 04:17:30;;;;;;;9.00;8.10;;;;;21.70;101436.00;;;;2076657;28;20803;-52
2021/11/15 04:18:33;;;;;;;8.70;7.90;;;;;21.70;101437.00;;;;2078651;28;20214;-53
2021/11/15 04:19:34;;;;;;;8.90;8.10;;;;;21.70;101439.00;;;;2077448;28;20305;-51
2021/11/15 04:20:35;;;;;;;8.60;7.80;;;;;21.70;101438.00;;;;2072235;28;20213;-52
2021/11/15 04:21:35;;;;;;;9.53;8.63;;;;;21.70;101439.00;;;;2078235;28;20217;-52
2021/11/15 04:22:36;;;;;;;9.40;8.50;;;;;21.70;101429.00;;;;2074540;28;20760;-51
2021/11/15 04:23:36;;;;;;;8.93;8.03;;;;;21.70;101432.00;;;;2070661;28;20221;-52
2021/11/15 04:24:36;;;;;;;8.60;7.80;;;;;21.70;101430.00;;;;2070576;28;20214;-52
2021/11/15 04:25:37;;;;;;;9.17;8.37;;;;;21.70;101428.00;;;;2070732;28;20218;-53
2021/11/15 04:26:37;;;;;;;8.57;7.80;;;;;21.70;101425.00;;;;2070371;28;20549;-51
2021/11/15 04:27:38;;;;;;;8.27;7.53;;;;;21.70;101430.00;;;;2070920;28;20698;-51
2021/11/15 04:28:38;;;;;;;8.47;7.77;;;;;21.70;101432.00;;;;2077910;28;20227;-51
2021/11/15 04:29:38;;;;;;;9.30;8.40;;;;;21.70;101423.00;;;;2077463;28;20223;-52
2021/11/15 04:30:39;;;;;;;8.93;8.13;;;;;21.70;101429.00;;;;2078252;28;20312;-50
2021/11/15 04:31:39;;;;;;;8.50;7.70;;;;;21.70;101426.00;;;;2067258;28;20214;-53
2021/11/15 04:32:43;;;;;;;9.20;8.40;;;;;21.70;101426.00;;;;2070464;28;20210;-52
2021/11/15 04:33:43;;;;;;;8.73;7.93;;;;;21.70;101423.00;;;;2071508;28;20214;-53
2021/11/15 04:34:43;;;;;;;9.00;8.20;;;;;21.70;101425.00;;;;2073535;28;20211;-53
2021/11/15 04:35:44;;;;;;;8.87;8.07;;;;;21.70;101422.00;;;;2074348;28;20205;-51
2021/11/15 04:36:44;;;;;;;10.03;9.13;;;;;21.70;101417.00;;;;2071385;28;20225;-52
2021/11/15 04:37:46;;;;;;;9.30;8.40;;;;;21.70;101424.00;;;;2070743;28;20226;-53
2021/11/15 04:38:46;;;;;;;9.40;8.60;;;;;21.70;101427.00;;;;2069852;28;20222;-52
2021/11/15 04:39:46;;;;;;;9.60;8.70;;;;;21.70;101429.00;;;;2071643;28;20206;-52
2021/11/15 04:40:47;;;;;;;8.73;8.00;;;;;21.70;101427.00;;;;2071760;28;20399;-53
2021/11/15 04:41:47;;;;;;;8.73;7.97;;;;;21.70;101385.00;;;;2071245;28;20293;-53
2021/11/15 04:42:47;;;;;;;9.43;8.60;;;;;21.70;101422.00;;;;2070718;28;20974;-52
2021/11/15 04:43:48;;;;;;;9.43;8.63;;;;;21.70;101423.00;;;;2070561;28;20214;-52
2021/11/15 04:44:48;;;;;;;9.20;8.40;;;;;21.70;101426.00;;;;2061705;28;20222;-51
2021/11/15 04:45:49;;;;;;;9.83;8.93;;;;;21.70;101424.00;;;;2069697;28;20577;-49
2021/11/15 04:46:49;;;;;;;8.73;7.93;;;;;21.70;101425.00;;;;2078202;28;20237;-52
2021/11/15 04:47:49;;;;;;;9.80;8.90;;;;;21.70;101422.00;;;;2070647;28;21371;-54
2021/11/15 04:48:51;;;;;;;8.53;7.80;;;;;21.70;101423.00;;;;2069113;28;20214;-52
2021/11/15 04:49:51;;;;;;;9.52;8.63;;;;;21.70;101423.00;;;;2076232;28;20218;-53
2021/11/15 04:50:52;;;;;;;8.90;8.10;;;;;21.70;101422.00;;;;2072431;28;20222;-52
2021/11/15 04:51:53;;;;;;;9.13;8.32;;;;;21.70;101428.00;;;;2074180;28;20280;-51
2021/11/15 04:52:53;;;;;;;9.17;8.37;;;;;21.70;101429.00;;;;2078347;28;20982;-52
2021/11/15 04:53:54;;;;;;;8.70;8.00;;;;;21.70;101429.00;;;;2078270;28;20240;-53
2021/11/15 04:54:54;;;;;;;8.63;7.73;;;;;21.70;101426.00;;;;2077948;28;20300;-52
2021/11/15 04:55:55;;;;;;;8.90;8.10;;;;;21.70;101428.00;;;;2076970;28;20213;-51
2021/11/15 04:56:55;;;;;;;9.03;8.20;;;;;21.60;101425.00;;;;2075212;28;20229;-52
2021/11/15 04:57:55;;;;;;;7.80;7.10;;;;;21.70;101424.00;;;;2078054;28;20688;-51
2021/11/15 04:58:56;;;;;;;8.90;8.13;;;;;21.70;101429.00;;;;2077305;28;20878;-53
2021/11/15 05:00:00;;;;;;;9.40;8.40;;;;;21.60;101433.00;;;;2078569;28;20217;-52